Time;durP1;ratioP1;P1;durP2;ratioP2;P2;SDS_P1;SDS_P2;PMS_P1;PMS_P2;Temp;Humidity;BMP_temperature;BMP_pressure;BME280_temperature;BME280_humidity;BME280_pressure;Samples;Min_cycle;Max_cycle;Signal;HPM_P1;HPM_P2
2023/08/16 00:02:03;;;;;;;5.05;3.65;;;14.90;99.90;;;;;;4997952;28;93527;-33
2023/08/16 00:04:28;;;;;;;4.28;3.78;;;14.90;99.90;;;;;;4988854;28;95087;-32
2023/08/16 00:06:54;;;;;;;4.50;3.25;;;14.90;99.90;;;;;;4992359;28;94786;-32
2023/08/16 00:09:20;;;;;;;4.03;3.65;;;15.00;99.90;;;;;;4993278;28;93832;-34
2023/08/16 00:11:46;;;;;;;4.07;3.70;;;15.00;99.90;;;;;;4992040;28;93548;-31
2023/08/16 00:14:12;;;;;;;3.38;3.10;;;15.00;99.90;;;;;;4988780;28;94770;-32
2023/08/16 00:16:38;;;;;;;5.53;3.20;;;14.90;99.90;;;;;;4992646;28;95650;-33
2023/08/16 00:19:03;;;;;;;4.00;3.60;;;15.00;99.90;;;;;;4989167;28;93605;-36
2023/08/16 00:21:29;;;;;;;6.38;3.35;;;14.90;99.90;;;;;;4992755;28;93800;-31
2023/08/16 00:23:55;;;;;;;4.15;3.25;;;14.80;99.90;;;;;;4992562;28;95777;-31
2023/08/16 00:26:20;;;;;;;3.72;3.42;;;14.70;99.90;;;;;;4992306;28;95609;-37
2023/08/16 00:28:48;;;;;;;5.05;3.42;;;14.80;99.90;;;;;;4990025;28;93979;-35
2023/08/16 00:31:14;;;;;;;3.60;3.30;;;14.70;99.90;;;;;;4990554;28;93514;-32
2023/08/16 00:33:40;;;;;;;6.22;3.90;;;14.80;99.90;;;;;;4989558;28;94960;-33
2023/08/16 00:36:07;;;;;;;5.47;4.05;;;14.80;99.90;;;;;;4991290;28;94537;-32
2023/08/16 00:38:33;;;;;;;5.47;3.20;;;14.80;99.90;;;;;;4995196;28;94188;-31
2023/08/16 00:40:59;;;;;;;4.57;4.10;;;14.80;99.90;;;;;;4997580;28;92524;-32
2023/08/16 00:43:25;;;;;;;7.15;3.63;;;14.70;99.90;;;;;;4993775;28;95018;-31
2023/08/16 00:45:51;;;;;;;3.92;3.13;;;14.70;99.90;;;;;;4977353;28;94760;-38
2023/08/16 00:48:18;;;;;;;4.88;4.38;;;14.60;99.90;;;;;;4977114;28;93736;-34
2023/08/16 00:50:45;;;;;;;4.28;3.65;;;14.60;99.90;;;;;;4987520;28;93740;-37
2023/08/16 00:53:13;;;;;;;4.82;4.30;;;14.50;99.90;;;;;;4977764;28;94746;-33
2023/08/16 00:55:39;;;;;;;;;;;14.50;99.90;;;;;;4997547;28;95326;-34
2023/08/16 00:58:05;;;;;;;9.02;4.13;;;14.50;99.90;;;;;;4998782;28;92196;-34
2023/08/16 01:00:31;;;;;;;8.70;4.55;;;14.40;99.90;;;;;;4996317;28;93768;-33
2023/08/16 01:02:57;;;;;;;6.43;4.70;;;14.40;99.90;;;;;;4981465;28;94372;-34
2023/08/16 01:05:23;;;;;;;5.60;4.22;;;14.40;99.90;;;;;;4991640;28;94665;-35
2023/08/16 01:07:50;;;;;;;3.83;3.47;;;14.40;99.90;;;;;;4962733;28;93265;-31
2023/08/16 01:10:15;;;;;;;4.85;3.95;;;14.40;99.90;;;;;;4991382;28;93521;-37
2023/08/16 01:12:52;;;;;;;6.47;3.70;;;14.40;99.90;;;;;;4990007;28;95391;-35
2023/08/16 01:15:24;;;;;;;8.00;3.92;;;14.40;99.90;;;;;;4989091;28;95559;-36
2023/08/16 01:17:53;;;;;;;7.40;4.28;;;14.40;99.90;;;;;;4979276;28;93498;-32
2023/08/16 01:20:21;;;;;;;4.38;4.00;;;14.40;99.90;;;;;;4991129;28;94542;-30
2023/08/16 01:23:08;;;;;;;7.18;3.70;;;14.30;99.90;;;;;;4979275;28;94997;-33
2023/08/16 01:25:35;;;;;;;12.10;4.30;;;14.30;99.90;;;;;;4979131;28;94087;-33
2023/08/16 01:28:01;;;;;;;7.47;4.45;;;14.30;99.90;;;;;;4980827;28;94614;-31
2023/08/16 01:30:29;;;;;;;5.05;3.75;;;14.30;99.90;;;;;;4978452;28;94016;-36
2023/08/16 01:32:54;;;;;;;3.50;3.20;;;14.20;99.90;;;;;;4979633;28;94982;-32
2023/08/16 01:35:20;;;;;;;8.68;4.38;;;14.30;99.90;;;;;;4978585;28;94351;-33
2023/08/16 01:37:46;;;;;;;3.42;3.13;;;14.20;99.90;;;;;;4991930;28;96170;-33
2023/08/16 01:40:13;;;;;;;5.00;2.92;;;14.20;99.90;;;;;;4996439;28;93363;-34
2023/08/16 01:42:47;;;;;;;7.88;4.55;;;14.30;99.90;;;;;;4995918;28;94294;-35
2023/08/16 01:45:15;;;;;;;7.57;4.07;;;14.20;99.90;;;;;;4991018;28;95033;-34
2023/08/16 01:47:41;;;;;;;5.00;3.78;;;14.20;99.90;;;;;;4988362;28;94703;-31
2023/08/16 01:50:08;;;;;;;4.43;4.03;;;14.20;99.90;;;;;;4996260;28;94251;-38
2023/08/16 01:52:35;;;;;;;4.97;3.97;;;14.10;99.90;;;;;;4995913;28;95238;-33
2023/08/16 01:55:00;;;;;;;5.43;3.65;;;14.10;99.90;;;;;;4994504;28;94323;-32
2023/08/16 01:57:26;;;;;;;4.85;3.15;;;14.10;99.90;;;;;;4995217;28;94441;-32
2023/08/16 01:59:51;;;;;;;4.15;3.22;;;14.10;99.90;;;;;;4994648;28;92633;-33
2023/08/16 02:02:17;;;;;;;5.65;3.60;;;14.00;99.90;;;;;;4993482;28;97084;-32
2023/08/16 02:04:43;;;;;;;12.30;5.15;;;14.00;99.90;;;;;;4990353;28;95404;-31
2023/08/16 02:07:08;;;;;;;5.90;4.32;;;14.00;99.90;;;;;;4995816;28;94308;-33
2023/08/16 02:09:34;;;;;;;5.72;4.68;;;14.00;99.90;;;;;;4991464;28;92250;-34
2023/08/16 02:11:59;;;;;;;9.00;5.60;;;14.00;99.90;;;;;;4989913;28;95176;-34
2023/08/16 02:14:25;;;;;;;9.27;6.22;;;14.00;99.90;;;;;;4991533;28;95936;-33
2023/08/16 02:16:51;;;;;;;7.05;5.28;;;14.00;99.90;;;;;;4991566;28;92977;-34
2023/08/16 02:19:16;;;;;;;7.55;4.82;;;14.00;99.90;;;;;;4992071;28;92105;-33
2023/08/16 02:21:42;;;;;;;14.35;4.70;;;14.00;99.90;;;;;;4987143;28;94868;-31
2023/08/16 02:24:08;;;;;;;9.10;4.88;;;13.90;99.90;;;;;;4992823;28;94480;-37
2023/08/16 02:26:34;;;;;;;5.53;4.43;;;13.90;99.90;;;;;;4987408;28;95909;-32
2023/08/16 02:28:59;;;;;;;5.88;4.68;;;13.80;99.90;;;;;;4993798;28;93326;-38
2023/08/16 02:31:25;;;;;;;8.52;5.32;;;13.80;99.90;;;;;;4986891;28;95116;-34
2023/08/16 02:33:50;;;;;;;8.93;5.72;;;13.80;99.90;;;;;;4986804;28;94419;-38
2023/08/16 02:36:16;;;;;;;8.90;4.93;;;13.70;99.90;;;;;;4995339;28;92243;-33
2023/08/16 02:38:42;;;;;;;9.25;5.78;;;13.70;99.90;;;;;;4995073;28;94161;-32
2023/08/16 02:41:07;;;;;;;10.32;5.50;;;13.70;99.90;;;;;;4995331;28;94889;-36
2023/08/16 02:43:33;;;;;;;6.82;4.97;;;13.70;99.90;;;;;;4995081;28;94140;-32
2023/08/16 02:45:58;;;;;;;7.82;6.43;;;13.70;99.90;;;;;;4995818;28;93184;-38
2023/08/16 02:48:24;;;;;;;6.38;5.70;;;13.70;99.90;;;;;;4990567;28;94837;-31
2023/08/16 02:50:50;;;;;;;5.50;5.03;;;13.70;99.90;;;;;;4975137;28;95702;-39
2023/08/16 02:53:16;;;;;;;9.00;6.18;;;13.70;99.90;;;;;;4976265;28;94917;-34
2023/08/16 02:55:42;;;;;;;7.40;5.90;;;13.70;99.90;;;;;;4969489;28;93569;-34
2023/08/16 02:58:07;;;;;;;9.35;5.63;;;13.70;99.90;;;;;;4990570;28;95000;-34
2023/08/16 03:00:33;;;;;;;9.15;7.18;;;13.80;99.90;;;;;;4976333;28;94833;-31
2023/08/16 03:02:59;;;;;;;6.93;5.78;;;13.80;99.90;;;;;;4987005;28;94976;-38
2023/08/16 03:05:24;;;;;;;7.18;6.47;;;13.80;99.90;;;;;;4976140;28;92576;-32
2023/08/16 03:07:50;;;;;;;9.55;5.93;;;13.80;99.90;;;;;;4975285;28;94072;-32
2023/08/16 03:10:16;;;;;;;8.45;5.93;;;13.80;99.90;;;;;;4988985;28;95566;-32
2023/08/16 03:12:41;;;;;;;6.20;5.60;;;13.80;99.90;;;;;;4995040;28;94072;-32
2023/08/16 03:15:07;;;;;;;10.30;5.80;;;13.80;99.90;;;;;;4993104;28;94887;-37
2023/08/16 03:17:33;;;;;;;6.47;4.97;;;13.80;99.90;;;;;;4975918;28;93324;-32
2023/08/16 03:19:59;;;;;;;7.70;5.47;;;13.80;99.90;;;;;;4974510;28;93938;-34
2023/08/16 03:22:24;;;;;;;5.18;4.68;;;13.80;99.90;;;;;;4974745;28;94801;-36
2023/08/16 03:24:50;;;;;;;5.30;4.72;;;13.80;99.90;;;;;;4990128;28;93830;-35
2023/08/16 03:27:16;;;;;;;8.20;4.55;;;13.80;99.90;;;;;;4980983;28;92232;-32
2023/08/16 03:29:42;;;;;;;7.82;4.75;;;13.80;99.90;;;;;;4997475;28;95763;-33
2023/08/16 03:32:08;;;;;;;5.13;4.25;;;13.80;99.90;;;;;;4998222;28;94377;-36
2023/08/16 03:34:33;;;;;;;8.23;5.20;;;13.70;99.90;;;;;;4998012;28;94877;-30
2023/08/16 03:36:59;;;;;;;10.77;5.72;;;13.70;99.90;;;;;;4997632;28;94233;-31
2023/08/16 03:39:25;;;;;;;6.68;5.38;;;13.60;99.90;;;;;;4990915;28;94377;-34
2023/08/16 03:41:50;;;;;;;5.65;4.70;;;13.60;99.90;;;;;;4989723;28;96502;-34
2023/08/16 03:44:16;;;;;;;7.68;4.72;;;13.60;99.90;;;;;;4991087;28;93967;-34
2023/08/16 03:46:42;;;;;;;6.88;5.07;;;13.60;99.90;;;;;;4995468;28;93344;-30
2023/08/16 03:49:07;;;;;;;8.25;6.20;;;13.50;99.90;;;;;;4990263;28;95093;-35
2023/08/16 03:51:33;;;;;;;10.15;7.05;;;13.60;99.90;;;;;;4990361;28;94622;-32
2023/08/16 03:53:59;;;;;;;6.50;5.78;;;13.50;99.90;;;;;;4990533;28;92479;-33
2023/08/16 03:56:25;;;;;;;5.18;4.68;;;13.50;99.90;;;;;;4990585;28;93868;-31
2023/08/16 03:58:50;;;;;;;7.35;5.78;;;13.40;99.90;;;;;;4997421;28;94607;-32
2023/08/16 04:01:16;;;;;;;6.28;4.95;;;13.40;99.90;;;;;;4994278;28;95258;-35
2023/08/16 04:03:43;;;;;;;5.95;5.40;;;13.40;99.90;;;;;;4989957;28;93847;-30
2023/08/16 04:06:11;;;;;;;6.50;5.80;;;13.40;99.90;;;;;;4995656;28;94766;-35
2023/08/16 04:08:38;;;;;;;;;;;13.40;99.90;;;;;;4989295;28;95528;-33
2023/08/16 04:11:03;;;;;;;12.25;7.13;;;13.40;99.90;;;;;;4993343;28;93866;-32
2023/08/16 04:13:29;;;;;;;8.15;6.65;;;13.40;99.90;;;;;;4991965;28;92129;-35
2023/08/16 04:15:55;;;;;;;6.35;5.75;;;13.40;99.90;;;;;;4991908;28;94261;-32
2023/08/16 04:18:20;;;;;;;5.45;4.90;;;13.30;99.90;;;;;;4993699;28;95340;-34
2023/08/16 04:20:46;;;;;;;6.93;6.22;;;13.30;99.90;;;;;;4990649;28;94440;-31
2023/08/16 04:23:11;;;;;;;5.35;4.90;;;13.30;99.90;;;;;;4987865;28;92204;-35
2023/08/16 04:25:37;;;;;;;4.72;4.10;;;13.20;99.90;;;;;;4990494;28;92591;-33
2023/08/16 04:28:03;;;;;;;8.82;5.60;;;13.10;99.90;;;;;;4988156;28;95928;-32
2023/08/16 04:30:28;;;;;;;7.68;5.13;;;13.00;99.90;;;;;;4990399;28;95550;-31
2023/08/16 04:32:54;;;;;;;6.57;5.40;;;12.90;99.90;;;;;;4987860;28;92183;-37
2023/08/16 04:35:20;;;;;;;6.25;5.65;;;12.90;99.90;;;;;;4991356;28;93340;-33
2023/08/16 04:37:45;;;;;;;8.98;6.00;;;12.90;99.90;;;;;;4991512;28;94744;-31
2023/08/16 04:40:11;;;;;;;5.18;4.78;;;12.90;99.90;;;;;;4996813;28;94091;-32
2023/08/16 04:42:37;;;;;;;6.45;5.13;;;12.90;99.90;;;;;;4987492;28;94036;-37
2023/08/16 04:45:03;;;;;;;4.97;4.47;;;12.90;99.90;;;;;;4993288;28;92054;-33
2023/08/16 04:47:30;;;;;;;7.82;5.40;;;13.00;99.90;;;;;;4996494;28;94842;-30
2023/08/16 04:49:55;;;;;;;7.60;5.55;;;13.10;99.90;;;;;;4992291;28;95606;-31
2023/08/16 04:52:21;;;;;;;8.55;5.45;;;13.20;99.90;;;;;;4986862;28;93802;-33
2023/08/16 04:54:46;;;;;;;7.43;6.57;;;13.30;99.90;;;;;;4996350;28;93300;-34
2023/08/16 04:57:12;;;;;;;8.25;5.88;;;13.30;99.90;;;;;;4996625;28;95119;-34
2023/08/16 04:59:38;;;;;;;6.53;5.93;;;13.30;99.90;;;;;;4996965;28;94621;-30
2023/08/16 05:02:05;;;;;;;5.93;5.40;;;13.40;99.90;;;;;;4997104;28;94287;-37
2023/08/16 05:04:30;;;;;;;5.55;5.05;;;13.40;99.90;;;;;;4978076;28;93008;-31
2023/08/16 05:06:56;;;;;;;5.53;5.03;;;13.50;99.90;;;;;;4978604;28;95856;-32
2023/08/16 05:09:22;;;;;;;5.63;4.45;;;13.60;99.90;;;;;;4977850;28;93965;-32
2023/08/16 05:11:48;;;;;;;6.18;4.85;;;13.70;99.90;;;;;;4991397;28;93964;-35
2023/08/16 05:14:14;;;;;;;6.45;4.97;;;13.60;99.90;;;;;;4977518;28;94248;-30
2023/08/16 05:16:39;;;;;;;5.78;5.28;;;13.60;99.90;;;;;;4978389;28;95700;-36
2023/08/16 05:19:05;;;;;;;6.05;5.40;;;13.60;99.90;;;;;;4977254;28;95902;-36
2023/08/16 05:21:30;;;;;;;6.28;5.32;;;13.50;99.90;;;;;;4978515;28;93497;-35
2023/08/16 05:23:56;;;;;;;5.75;5.03;;;13.50;99.90;;;;;;4978081;28;93348;-32
2023/08/16 05:26:22;;;;;;;5.55;4.82;;;13.50;99.90;;;;;;4988981;28;95110;-34
2023/08/16 05:28:47;;;;;;;6.75;5.97;;;13.60;99.90;;;;;;4977427;28;94489;-36
2023/08/16 05:31:13;;;;;;;7.47;6.78;;;13.70;99.90;;;;;;4976226;28;93790;-32
2023/08/16 05:33:39;;;;;;;6.70;6.10;;;13.80;99.90;;;;;;4977191;28;93267;-33
2023/08/16 05:36:06;;;;;;;6.82;6.22;;;14.00;99.90;;;;;;4990161;28;94424;-35
2023/08/16 05:38:32;;;;;;;6.57;5.95;;;14.00;99.90;;;;;;4992351;28;94236;-34
2023/08/16 05:40:58;;;;;;;6.35;5.75;;;14.00;99.90;;;;;;4986058;28;93071;-32
2023/08/16 05:43:24;;;;;;;9.98;7.20;;;14.10;99.90;;;;;;4994802;28;92583;-34
2023/08/16 05:45:50;;;;;;;8.07;7.28;;;14.20;99.90;;;;;;4995993;28;94816;-35
2023/08/16 05:48:15;;;;;;;8.65;7.00;;;14.20;99.90;;;;;;4992356;28;94624;-34
2023/08/16 05:50:41;;;;;;;15.20;9.00;;;14.20;99.90;;;;;;4976863;28;93168;-32
2023/08/16 05:53:07;;;;;;;13.60;10.65;;;14.20;99.90;;;;;;4977842;28;94526;-34
2023/08/16 05:55:33;;;;;;;9.88;8.88;;;14.30;99.90;;;;;;4975779;28;94865;-33
2023/08/16 05:57:59;;;;;;;9.35;8.45;;;14.50;99.90;;;;;;4979978;28;94737;-35
2023/08/16 06:00:25;;;;;;;13.75;9.52;;;14.60;99.90;;;;;;4986505;28;93147;-30
2023/08/16 06:02:52;;;;;;;9.10;8.20;;;14.70;99.90;;;;;;4995456;28;94569;-30
2023/08/16 06:05:18;;;;;;;9.93;8.68;;;14.80;99.90;;;;;;4995059;28;95484;-37
2023/08/16 06:07:44;;;;;;;11.40;9.88;;;15.00;99.90;;;;;;4995622;28;95936;-35
2023/08/16 06:10:10;;;;;;;11.23;9.88;;;15.10;99.90;;;;;;4995520;28;94051;-32
2023/08/16 06:12:36;;;;;;;12.13;10.18;;;15.20;99.90;;;;;;4995719;28;94004;-36
2023/08/16 06:15:02;;;;;;;13.65;10.20;;;15.30;99.90;;;;;;4995373;28;94003;-35
2023/08/16 06:17:28;;;;;;;13.00;10.73;;;15.40;99.90;;;;;;4985362;28;94322;-34
2023/08/16 06:19:54;;;;;;;12.35;11.00;;;15.50;99.90;;;;;;4975166;28;92267;-33
2023/08/16 06:22:19;;;;;;;16.88;11.98;;;15.60;99.90;;;;;;4985864;28;93506;-34
2023/08/16 06:24:45;;;;;;;14.68;11.52;;;15.70;99.90;;;;;;4991390;28;95813;-35
2023/08/16 06:27:10;;;;;;;14.05;11.55;;;15.80;99.90;;;;;;4990903;28;94192;-32
2023/08/16 06:29:36;;;;;;;16.40;12.02;;;15.80;99.90;;;;;;4988819;28;93040;-33
2023/08/16 06:32:03;;;;;;;13.45;11.13;;;15.90;99.90;;;;;;4991040;28;93788;-34
2023/08/16 06:34:29;;;;;;;12.95;11.65;;;15.90;99.90;;;;;;4990278;28;94735;-32
2023/08/16 06:36:55;;;;;;;17.15;12.38;;;15.90;99.90;;;;;;4991695;28;94584;-34
2023/08/16 06:39:21;;;;;;;16.70;11.95;;;15.90;99.90;;;;;;4992613;28;93665;-34
2023/08/16 06:41:48;;;;;;;15.63;12.00;;;16.00;99.90;;;;;;4977950;28;94549;-39
2023/08/16 06:44:13;;;;;;;14.65;11.82;;;15.90;99.90;;;;;;4992293;28;94916;-35
2023/08/16 06:46:39;;;;;;;15.63;12.13;;;16.00;99.90;;;;;;4959526;28;95264;-34
2023/08/16 06:49:05;;;;;;;17.15;12.18;;;16.00;99.90;;;;;;4992050;28;93377;-33
2023/08/16 06:51:30;;;;;;;17.50;11.88;;;16.00;99.90;;;;;;4991364;28;93433;-31
2023/08/16 06:53:56;;;;;;;16.23;11.75;;;16.10;99.90;;;;;;4991267;28;95791;-33
2023/08/16 06:56:21;;;;;;;15.98;10.68;;;16.40;99.90;;;;;;4971915;28;95558;-33
2023/08/16 06:58:47;;;;;;;13.52;10.85;;;16.50;99.90;;;;;;4992219;28;93173;-31
2023/08/16 07:01:13;;;;;;;11.95;9.95;;;16.80;99.90;;;;;;4994858;28;94974;-35
2023/08/16 07:03:38;;;;;;;16.00;11.70;;;17.00;99.90;;;;;;4982661;28;94777;-34
2023/08/16 07:06:04;;;;;;;12.20;9.43;;;17.20;99.90;;;;;;4976322;28;94151;-34
2023/08/16 07:08:30;;;;;;;12.45;10.25;;;17.40;99.90;;;;;;4975859;28;93415;-34
2023/08/16 07:10:56;;;;;;;11.35;9.32;;;17.80;99.90;;;;;;4982747;28;93611;-37
2023/08/16 07:13:21;;;;;;;15.27;9.18;;;18.00;99.90;;;;;;4988910;28;95073;-35
2023/08/16 07:15:47;;;;;;;11.20;9.30;;;18.30;99.90;;;;;;4976713;28;94388;-30
2023/08/16 07:18:12;;;;;;;14.13;8.40;;;18.60;99.90;;;;;;4976380;28;95957;-38
2023/08/16 07:20:39;;;;;;;18.50;9.68;;;18.90;99.90;;;;;;4975934;28;93334;-36
2023/08/16 07:23:06;;;;;;;16.73;7.57;;;19.20;99.90;;;;;;4988171;28;93701;-37
2023/08/16 07:25:32;;;;;;;12.15;7.53;;;19.30;99.90;;;;;;4994200;28;94956;-35
2023/08/16 07:27:58;;;;;;;9.23;8.00;;;19.10;99.90;;;;;;4990438;28;94219;-35
2023/08/16 07:30:23;;;;;;;11.05;6.63;;;19.20;99.90;;;;;;4979734;28;93516;-35
2023/08/16 07:32:49;;;;;;;8.38;6.90;;;19.30;99.90;;;;;;4980244;28;93714;-32
2023/08/16 07:35:15;;;;;;;9.20;7.80;;;19.60;99.90;;;;;;4980719;28;94164;-32
2023/08/16 07:37:40;;;;;;;12.63;7.82;;;19.70;99.90;;;;;;4991025;28;94024;-35
2023/08/16 07:40:06;;;;;;;13.23;7.55;;;19.70;99.90;;;;;;4995061;28;92087;-36
2023/08/16 07:42:32;;;;;;;8.88;7.43;;;19.70;99.90;;;;;;4994470;28;96900;-34
2023/08/16 07:44:59;;;;;;;9.40;7.07;;;19.90;99.90;;;;;;4993992;28;95196;-33
2023/08/16 07:47:25;;;;;;;8.25;6.28;;;19.90;99.90;;;;;;4986748;28;92290;-33
2023/08/16 07:49:51;;;;;;;8.30;7.50;;;19.90;99.90;;;;;;4985235;28;94314;-34
2023/08/16 07:52:16;;;;;;;10.43;7.03;;;19.90;99.90;;;;;;4986587;28;94695;-36
2023/08/16 07:54:42;;;;;;;10.55;6.85;;;19.80;99.90;;;;;;4984544;28;94616;-34
2023/08/16 07:57:08;;;;;;;9.15;7.88;;;20.00;99.90;;;;;;4993118;28;93522;-33
2023/08/16 07:59:35;;;;;;;6.10;5.45;;;19.90;99.90;;;;;;4986229;28;92792;-32
2023/08/16 08:02:00;;;;;;;8.13;6.28;;;19.90;99.90;;;;;;4995478;28;94873;-32
2023/08/16 08:04:26;;;;;;;10.90;7.05;;;20.00;99.90;;;;;;4987340;28;95541;-32
2023/08/16 08:06:52;;;;;;;8.13;6.93;;;20.00;99.90;;;;;;4992480;28;94430;-34
2023/08/16 08:09:17;;;;;;;9.38;6.78;;;20.30;99.90;;;;;;4987582;28;92223;-31
2023/08/16 08:11:43;;;;;;;8.00;7.30;;;20.60;99.90;;;;;;4993516;28;94623;-31
2023/08/16 08:14:08;;;;;;;9.07;6.28;;;20.60;99.90;;;;;;4987752;28;94250;-34
2023/08/16 08:16:34;;;;;;;7.38;6.43;;;20.40;99.90;;;;;;4995376;28;93308;-35
2023/08/16 08:19:00;;;;;;;8.30;7.47;;;20.50;99.90;;;;;;4986725;28;94362;-34
2023/08/16 08:21:26;;;;;;;11.20;7.32;;;20.60;99.90;;;;;;5029945;22;95224;-37
2023/08/16 08:23:52;;;;;;;9.30;6.95;;;20.50;99.90;;;;;;4986126;28;93736;-34
2023/08/16 08:26:18;;;;;;;12.98;6.80;;;20.80;99.90;;;;;;4996071;28;94744;-33
2023/08/16 08:28:44;;;;;;;9.18;6.25;;;20.90;99.90;;;;;;4991489;28;92278;-33
2023/08/16 08:31:10;;;;;;;7.20;6.50;;;20.80;99.90;;;;;;4994947;28;95224;-33
2023/08/16 08:33:36;;;;;;;9.25;7.30;;;20.80;99.90;;;;;;4992437;28;94944;-35
2023/08/16 08:36:03;;;;;;;14.75;7.72;;;20.70;99.90;;;;;;4997221;28;94457;-33
2023/08/16 08:38:29;;;;;;;12.55;8.05;;;20.60;99.90;;;;;;4996912;28;94440;-32
2023/08/16 08:40:58;;;;;;;9.15;6.07;;;20.60;99.90;;;;;;4996880;28;94616;-35
2023/08/16 08:43:30;;;;;;;9.82;6.85;;;21.00;99.90;;;;;;4995707;28;96208;-36
2023/08/16 08:45:58;;;;;;;10.63;5.85;;;21.30;99.90;;;;;;4997528;28;94707;-33
2023/08/16 08:48:27;;;;;;;9.20;6.32;;;21.40;99.90;;;;;;4996945;28;93241;-35
2023/08/16 08:50:54;;;;;;;7.95;7.15;;;21.50;99.90;;;;;;4996546;28;95170;-35
2023/08/16 08:53:27;;;;;;;7.63;5.28;;;21.40;99.90;;;;;;4995089;28;94331;-34
2023/08/16 08:55:54;;;;;;;6.72;6.00;;;21.40;99.90;;;;;;4997172;28;95323;-33
2023/08/16 08:58:21;;;;;;;5.93;5.40;;;21.50;99.90;;;;;;4996363;28;92875;-35
2023/08/16 09:00:49;;;;;;;9.40;5.27;;;21.50;99.90;;;;;;4996395;28;95524;-30
2023/08/16 09:03:18;;;;;;;5.53;4.87;;;21.70;99.90;;;;;;4984764;28;94261;-31
2023/08/16 09:05:52;;;;;;;4.78;4.32;;;21.90;99.90;;;;;;4996973;28;92274;-33
2023/08/16 09:08:20;;;;;;;6.28;4.47;;;22.00;99.90;;;;;;4996327;28;94062;-32
2023/08/16 09:10:46;;;;;;;4.07;3.58;;;21.90;99.90;;;;;;4996603;28;94475;-31
2023/08/16 09:13:13;;;;;;;6.53;4.50;;;21.70;99.90;;;;;;4996763;28;94451;-36
2023/08/16 09:15:40;;;;;;;10.77;5.40;;;21.60;99.90;;;;;;4996840;28;92439;-32
2023/08/16 09:18:11;;;;;;;4.68;4.07;;;21.60;99.90;;;;;;4978757;28;94234;-36
2023/08/16 09:20:37;;;;;;;11.30;4.75;;;21.60;99.90;;;;;;4994509;28;96470;-30
2023/08/16 09:23:03;;;;;;;10.85;5.45;;;21.70;99.90;;;;;;4997215;28;94117;-32
2023/08/16 09:25:29;;;;;;;5.13;4.70;;;21.50;99.90;;;;;;4996825;28;94070;-31
2023/08/16 09:27:55;;;;;;;4.13;3.83;;;21.60;99.90;;;;;;4978404;28;92946;-31
2023/08/16 09:30:23;;;;;;;8.32;4.90;;;21.70;99.90;;;;;;4995512;28;94108;-32
2023/08/16 09:32:51;;;;;;;5.03;4.10;;;21.80;99.90;;;;;;4996708;28;94032;-34
2023/08/16 09:35:17;;;;;;;11.38;5.32;;;21.80;99.90;;;;;;4996363;28;92401;-35
2023/08/16 09:37:44;;;;;;;5.80;4.25;;;21.90;99.90;;;;;;4996951;28;92198;-35
2023/08/16 09:40:15;;;;;;;5.32;3.33;;;22.10;99.90;;;;;;4995344;28;94500;-32
2023/08/16 09:42:41;;;;;;;5.30;4.78;;;22.10;99.90;;;;;;4996756;28;95083;-35
2023/08/16 09:45:07;;;;;;;8.38;5.00;;;22.20;99.90;;;;;;4995757;28;94780;-31
2023/08/16 09:47:32;;;;;;;5.50;4.93;;;22.20;99.90;;;;;;4996320;28;94657;-31
2023/08/16 09:49:59;;;;;;;5.10;4.57;;;22.00;99.90;;;;;;4996295;28;94717;-30
2023/08/16 09:52:27;;;;;;;3.90;3.50;;;22.00;99.90;;;;;;4996217;28;95016;-32
2023/08/16 09:54:55;;;;;;;3.90;3.50;;;22.20;99.90;;;;;;4995371;28;93198;-31
2023/08/16 09:57:21;;;;;;;8.88;3.70;;;22.20;99.90;;;;;;4996297;28;94012;-38
2023/08/16 09:59:48;;;;;;;4.65;3.13;;;22.30;99.90;;;;;;4996008;28;95026;-30
2023/08/16 10:02:14;;;;;;;4.95;3.05;;;22.20;99.90;;;;;;4995830;28;94200;-35
2023/08/16 10:04:40;;;;;;;2.92;2.67;;;22.30;99.90;;;;;;4996791;28;92621;-33
2023/08/16 10:07:06;;;;;;;6.38;3.42;;;22.50;99.90;;;;;;4996059;28;92133;-34
2023/08/16 10:09:33;;;;;;;3.42;3.00;;;22.50;99.90;;;;;;4995044;28;95666;-30
2023/08/16 10:12:02;;;;;;;3.37;2.80;;;22.50;99.90;;;;;;4996046;28;95921;-31
2023/08/16 10:14:29;;;;;;;2.92;2.50;;;22.60;99.90;;;;;;4995529;28;93460;-35
2023/08/16 10:17:00;;;;;;;3.05;2.47;;;22.40;99.90;;;;;;4996168;28;94069;-32
2023/08/16 10:19:29;;;;;;;2.35;2.13;;;22.50;99.90;;;;;;4996437;28;95754;-30
2023/08/16 10:21:57;;;;;;;2.60;2.40;;;22.60;99.90;;;;;;4995400;28;95027;-32
2023/08/16 10:24:24;;;;;;;3.05;2.75;;;22.40;99.90;;;;;;4995703;28;93046;-31
2023/08/16 10:26:53;;;;;;;3.83;2.85;;;22.30;99.90;;;;;;4977101;28;92449;-34
2023/08/16 10:29:23;;;;;;;3.60;2.30;;;22.40;99.90;;;;;;4995311;28;94316;-32
2023/08/16 10:31:51;;;;;;;4.00;2.28;;;22.40;99.90;;;;;;4977571;28;96225;-33
2023/08/16 10:34:20;;;;;;;3.78;2.45;;;22.40;99.90;;;;;;4996701;28;94589;-34
2023/08/16 10:36:46;;;;;;;4.47;2.00;;;22.40;99.90;;;;;;4990171;28;93410;-31
2023/08/16 10:39:22;;;;;;;2.25;1.95;;;22.30;99.90;;;;;;5001475;28;96401;-35
2023/08/16 10:41:50;;;;;;;4.05;2.67;;;22.40;99.90;;;;;;5001827;28;93393;-34
2023/08/16 10:44:25;;;;;;;4.60;2.30;;;22.40;99.90;;;;;;5001706;28;94771;-37
2023/08/16 10:46:51;;;;;;;4.07;2.20;;;22.50;99.90;;;;;;5002739;28;94836;-33
2023/08/16 10:49:20;;;;;;;3.63;2.30;;;22.50;99.90;;;;;;5000750;28;94490;-34
2023/08/16 10:51:47;;;;;;;1.98;1.77;;;22.40;99.90;;;;;;5002096;28;94295;-33
2023/08/16 10:54:13;;;;;;;3.45;2.45;;;22.60;99.90;;;;;;5002546;28;93131;-33
2023/08/16 10:56:44;;;;;;;1.75;1.65;;;22.40;99.90;;;;;;5002499;28;94300;-33
2023/08/16 10:59:11;;;;;;;2.05;1.85;;;22.30;99.90;;;;;;5000668;28;95500;-30
2023/08/16 11:01:47;;;;;;;6.85;2.55;;;22.30;99.90;;;;;;5000778;28;94979;-33
2023/08/16 11:04:13;;;;;;;4.53;2.67;;;22.30;99.90;;;;;;5001664;28;92243;-36
2023/08/16 11:06:39;;;;;;;2.95;2.63;;;22.30;99.90;;;;;;5002204;28;94219;-30
2023/08/16 11:09:06;;;;;;;4.38;2.78;;;22.50;99.90;;;;;;5001424;28;94899;-32
2023/08/16 11:11:33;;;;;;;2.85;2.65;;;22.40;99.90;;;;;;5001848;28;95141;-35
2023/08/16 11:14:00;;;;;;;2.92;2.40;;;22.50;99.90;;;;;;5001524;28;94005;-34
2023/08/16 11:16:26;;;;;;;3.58;2.67;;;22.60;99.90;;;;;;5001700;28;92252;-32
2023/08/16 11:18:52;;;;;;;2.60;2.30;;;22.50;99.90;;;;;;5001044;28;94881;-36
2023/08/16 11:21:19;;;;;;;3.88;2.33;;;22.60;99.90;;;;;;5001697;28;93054;-29
2023/08/16 11:23:46;;;;;;;2.27;1.90;;;22.60;99.90;;;;;;4999865;28;95350;-34
2023/08/16 11:26:12;;;;;;;2.80;2.20;;;22.60;99.90;;;;;;5001094;28;94116;-37
2023/08/16 11:28:39;;;;;;;2.17;1.75;;;22.50;99.90;;;;;;5001404;28;94436;-33
2023/08/16 11:31:06;;;;;;;2.33;2.13;;;22.60;99.90;;;;;;5000924;28;96048;-32
2023/08/16 11:33:37;;;;;;;3.28;2.15;;;22.70;99.90;;;;;;5001551;28;94004;-33
2023/08/16 11:36:08;;;;;;;5.45;2.30;;;22.70;99.90;;;;;;5000744;28;92390;-32
2023/08/16 11:38:34;;;;;;;2.28;2.17;;;22.60;99.90;;;;;;5002192;28;94253;-35
2023/08/16 11:41:01;;;;;;;2.65;2.45;;;22.70;99.90;;;;;;5001674;28;94998;-35
2023/08/16 11:43:35;;;;;;;4.40;3.30;;;22.70;99.90;;;;;;5001322;28;94464;-33
2023/08/16 11:46:02;;;;;;;4.50;2.53;;;22.80;99.90;;;;;;4998817;28;94439;-32
2023/08/16 11:48:31;;;;;;;2.33;2.13;;;22.80;99.90;;;;;;4996619;28;95627;-36
2023/08/16 11:50:58;;;;;;;2.53;2.33;;;22.70;99.90;;;;;;4997593;28;95457;-37
2023/08/16 11:53:31;;;;;;;2.22;2.10;;;22.70;99.90;;;;;;4998293;28;93262;-31
2023/08/16 11:56:07;;;;;;;2.42;2.22;;;22.70;99.90;;;;;;4998025;28;94614;-36
2023/08/16 11:58:46;;;;;;;5.22;2.65;;;22.60;99.90;;;;;;4985976;28;94202;-33
2023/08/16 12:01:16;;;;;;;2.97;2.70;;;22.60;99.90;;;;;;4995235;28;95021;-36
2023/08/16 12:03:46;;;;;;;2.38;2.17;;;22.50;99.90;;;;;;4998582;28;93066;-35
2023/08/16 12:06:11;;;;;;;3.03;2.28;;;22.70;99.90;;;;;;4998121;28;91453;-33
2023/08/16 12:08:54;;;;;;;3.45;2.28;;;22.70;99.90;;;;;;4996009;28;94917;-34
2023/08/16 12:11:33;;;;;;;4.18;2.55;;;23.10;99.90;;;;;;4996783;28;94403;-37
2023/08/16 12:14:00;;;;;;;3.70;2.80;;;23.00;99.90;;;;;;4997781;28;95303;-32
2023/08/16 12:16:26;;;;;;;2.53;2.33;;;22.90;99.90;;;;;;4996615;28;92895;-35
2023/08/16 12:18:52;;;;;;;3.13;2.63;;;22.90;99.90;;;;;;4996984;28;94932;-36
2023/08/16 12:21:18;;;;;;;2.28;1.90;;;22.90;99.90;;;;;;4996681;28;94543;-32
2023/08/16 12:23:43;;;;;;;2.08;1.88;;;22.80;99.90;;;;;;4997576;28;93779;-33
2023/08/16 12:26:09;;;;;;;1.92;1.80;;;22.80;99.90;;;;;;4994823;28;93670;-35
2023/08/16 12:28:35;;;;;;;3.40;1.85;;;22.60;99.90;;;;;;4993981;28;94937;-34
2023/08/16 12:31:00;;;;;;;4.35;2.15;;;22.50;99.90;;;;;;4994781;28;95415;-32
2023/08/16 12:33:26;;;;;;;2.92;2.25;;;22.50;99.90;;;;;;4987099;28;93500;-33
2023/08/16 12:35:53;;;;;;;5.40;2.55;;;22.40;99.90;;;;;;4993677;28;92854;-36
2023/08/16 12:38:19;;;;;;;5.45;2.17;;;22.50;99.90;;;;;;4994607;28;96440;-33
2023/08/16 12:40:45;;;;;;;3.78;1.80;;;22.40;99.90;;;;;;4994767;28;95588;-32
2023/08/16 12:43:11;;;;;;;2.55;2.35;;;22.30;99.90;;;;;;4995056;28;95154;-37